Time;durP1;ratioP1;P1;durP2;ratioP2;P2;SDS_P1;SDS_P2;PMS_P1;PMS_P2;Temp;Humidity;BMP_temperature;BMP_pressure;BME280_temperature;BME280_humidity;BME280_pressure;Samples;Min_cycle;Max_cycle;Signal;HPM_P1;HPM_P2
2023/05/18 00:02:20;;;;;;;2.55;1.10;;;;;;;11.75;100.00;94117.06;5129616;28;20709;-78
2023/05/18 00:04:47;;;;;;;3.38;1.00;;;;;;;11.74;100.00;94118.19;5130133;28;20853;-78
2023/05/18 00:07:14;;;;;;;3.80;0.70;;;;;;;11.59;100.00;94124.34;5130246;28;20205;-78
2023/05/18 00:09:41;;;;;;;0.90;0.80;;;;;;;11.58;100.00;94117.34;5129934;27;20256;-78
2023/05/18 00:12:09;;;;;;;1.65;0.95;;;;;;;11.67;100.00;94126.13;5133529;27;20257;-78
2023/05/18 00:14:37;;;;;;;1.15;0.80;;;;;;;11.70;100.00;94115.38;5133774;27;20205;-78
2023/05/18 00:17:04;;;;;;;1.55;0.80;;;;;;;11.68;100.00;94120.34;5133503;27;20245;-78
2023/05/18 00:19:30;;;;;;;1.25;0.88;;;;;;;11.62;100.00;94126.34;5133383;27;20205;-78
2023/05/18 00:21:57;;;;;;;2.35;0.80;;;;;;;11.65;100.00;94117.53;5133694;27;20205;-77
2023/05/18 00:24:24;;;;;;;2.55;0.90;;;;;;;11.68;100.00;94127.69;5133335;27;20254;-78
2023/05/18 00:26:51;;;;;;;1.10;0.70;;;;;;;11.68;100.00;94122.28;5133455;27;20206;-78
2023/05/18 00:29:18;;;;;;;0.93;0.57;;;;;;;11.68;100.00;94116.84;5133072;27;20209;-80
2023/05/18 00:31:46;;;;;;;0.85;0.60;;;;;;;11.66;100.00;94110.97;5133339;27;20199;-79
2023/05/18 00:34:14;;;;;;;0.70;0.70;;;;;;;11.58;100.00;94118.16;5132638;27;20232;-79
2023/05/18 00:36:41;;;;;;;0.65;0.63;;;;;;;11.61;100.00;94117.47;5119260;27;20601;-79
2023/05/18 00:39:09;;;;;;;0.90;0.68;;;;;;;11.61;100.00;94122.09;5133080;27;20704;-78
2023/05/18 00:41:35;;;;;;;1.83;0.63;;;;;;;11.67;100.00;94124.19;5133412;27;20208;-78
2023/05/18 00:44:03;;;;;;;0.57;0.57;;;;;;;11.60;100.00;94121.31;5132983;27;21024;-78
2023/05/18 00:46:30;;;;;;;0.65;0.55;;;;;;;11.59;100.00;94124.34;5133277;27;20651;-78
2023/05/18 00:49:00;;;;;;;0.47;0.47;;;;;;;11.59;100.00;94124.34;5132637;27;20206;-79
2023/05/18 00:51:27;;;;;;;0.60;0.60;;;;;;;11.61;100.00;94120.16;5133346;27;20205;-79
2023/05/18 00:53:56;;;;;;;0.77;0.57;;;;;;;11.69;100.00;94113.00;5133360;27;20201;-78
2023/05/18 00:56:23;;;;;;;2.20;0.95;;;;;;;11.78;100.00;94108.22;5133551;27;20266;-79
2023/05/18 00:58:54;;;;;;;0.95;0.70;;;;;;;11.87;100.00;94098.00;5133455;27;20192;-79
2023/05/18 01:01:23;;;;;;;0.98;0.70;;;;;;;11.83;100.00;94099.84;5132847;27;20189;-80
2023/05/18 01:03:55;;;;;;;0.40;0.40;;;;;;;11.82;100.00;94100.97;5132412;27;20205;-79
2023/05/18 01:06:25;;;;;;;0.43;0.38;;;;;;;11.87;100.00;94102.66;5133126;27;20186;-79
2023/05/18 01:08:52;;;;;;;0.43;0.40;;;;;;;11.77;100.00;94109.34;5132760;27;20288;-79
2023/05/18 01:11:24;;;;;;;0.98;0.40;;;;;;;11.71;100.00;94110.72;5132924;27;20224;-79
2023/05/18 01:13:58;;;;;;;0.88;0.55;;;;;;;11.78;100.00;94110.16;5132076;27;20200;-79
2023/05/18 01:16:32;;;;;;;0.70;0.57;;;;;;;11.91;100.00;94115.16;5132297;27;20258;-79
2023/05/18 01:19:12;;;;;;;0.75;0.60;;;;;;;11.88;100.00;94105.03;5132370;27;20654;-79
2023/05/18 01:21:56;;;;;;;0.60;0.50;;;;;;;11.81;100.00;94121.09;5131340;27;20283;-77
2023/05/18 01:24:32;;;;;;;1.75;0.50;;;;;;;11.72;100.00;94117.75;5132520;27;20607;-78
2023/05/18 01:27:00;;;;;;;0.80;0.70;;;;;;;11.68;100.00;94114.13;5119374;27;20956;-78
2023/05/18 01:29:29;;;;;;;0.57;0.50;;;;;;;11.66;100.00;94119.91;5131518;27;20208;-78
2023/05/18 01:31:57;;;;;;;0.50;0.50;;;;;;;11.60;100.00;94115.09;5131972;27;20295;-78
2023/05/18 01:34:24;;;;;;;0.88;0.65;;;;;;;11.58;100.00;94117.34;5131719;27;20304;-78
2023/05/18 01:36:51;;;;;;;2.20;0.77;;;;;;;11.55;100.00;94116.13;5131629;27;20201;-79
2023/05/18 01:39:18;;;;;;;0.50;0.50;;;;;;;11.62;100.00;94123.63;5131561;27;20677;-78
2023/05/18 01:41:52;;;;;;;0.52;0.43;;;;;;;11.66;100.00;94119.09;5132020;27;20213;-78
2023/05/18 01:44:25;;;;;;;1.65;0.63;;;;;;;11.64;100.00;94114.03;5132003;27;20197;-79
2023/05/18 01:46:57;;;;;;;1.23;0.90;;;;;;;11.67;100.00;94104.41;5131737;27;20189;-78
2023/05/18 01:49:30;;;;;;;1.95;0.68;;;;;;;11.74;100.00;94107.34;5132124;27;20283;-78
2023/05/18 01:52:03;;;;;;;0.68;0.60;;;;;;;11.76;100.00;94110.50;5131479;27;20488;-78
2023/05/18 01:54:31;;;;;;;0.57;0.57;;;;;;;11.81;100.00;94102.09;5118194;27;20705;-78
2023/05/18 01:56:59;;;;;;;0.98;0.73;;;;;;;11.86;100.00;94115.44;5131356;27;20654;-78
2023/05/18 01:59:28;;;;;;;1.35;0.73;;;;;;;11.92;100.00;94124.88;5131276;27;20649;-78
2023/05/18 02:01:59;;;;;;;0.80;0.70;;;;;;;11.99;100.00;94122.38;5127897;27;20903;-78
2023/05/18 02:04:26;;;;;;;1.10;0.80;;;;;;;11.99;100.00;94116.16;5128346;27;20233;-78
2023/05/18 02:06:54;;;;;;;1.48;0.93;;;;;;;11.88;100.00;94120.50;5125750;27;20561;-79
2023/05/18 02:09:21;;;;;;;3.42;0.90;;;;;;;11.81;100.00;94120.31;5128192;27;20202;-78
2023/05/18 02:11:47;;;;;;;0.80;0.60;;;;;;;11.82;100.00;94122.69;5133534;27;20237;-78
2023/05/18 02:14:14;;;;;;;0.70;0.70;;;;;;;11.93;100.00;94118.31;5131483;27;20290;-78
2023/05/18 02:16:46;;;;;;;0.65;0.63;;;;;;;11.82;100.00;94125.41;5118499;27;20291;-77
2023/05/18 02:19:13;;;;;;;0.60;0.60;;;;;;;11.81;100.00;94131.16;5122736;27;20197;-78
2023/05/18 02:21:42;;;;;;;3.85;0.90;;;;;;;11.82;100.00;94121.88;5131225;27;20292;-77
2023/05/18 02:24:09;;;;;;;0.70;0.65;;;;;;;11.90;100.00;94123.66;5131020;27;20204;-78
2023/05/18 02:26:36;;;;;;;0.45;0.45;;;;;;;11.81;100.00;94123.81;5131137;27;20219;-78
2023/05/18 02:29:05;;;;;;;0.70;0.70;;;;;;;11.81;100.00;94115.69;5130431;27;20295;-79
2023/05/18 02:31:31;;;;;;;0.68;0.65;;;;;;;11.85;100.00;94129.34;5127782;27;20625;-78
2023/05/18 02:34:00;;;;;;;1.38;0.80;;;;;;;11.91;100.00;94126.00;5121348;27;20763;-78
2023/05/18 02:36:27;;;;;;;2.17;0.70;;;;;;;11.98;100.00;94126.22;5125029;27;20789;-77
2023/05/18 02:38:53;;;;;;;2.15;1.00;;;;;;;12.05;100.00;94120.16;5115949;27;20205;-78
2023/05/18 02:41:20;;;;;;;6.15;0.82;;;;;;;12.08;100.00;94125.69;5120703;27;20273;-78
2023/05/18 02:43:47;;;;;;;2.45;0.70;;;;;;;12.05;100.00;94120.97;5135211;27;20870;-78
2023/05/18 02:46:13;;;;;;;0.93;0.75;;;;;;;11.99;100.00;94125.09;5130905;27;20193;-77
2023/05/18 02:48:44;;;;;;;1.10;0.93;;;;;;;12.07;100.00;94124.13;5130650;27;20213;-77
2023/05/18 02:51:12;;;;;;;1.63;1.00;;;;;;;12.05;100.00;94137.25;5121997;27;20228;-77
2023/05/18 02:53:39;;;;;;;5.32;1.00;;;;;;;11.96;100.00;94139.34;5130249;27;20204;-79
2023/05/18 02:56:06;;;;;;;1.05;0.95;;;;;;;11.93;100.00;94142.75;5130128;27;20604;-79
2023/05/18 02:58:33;;;;;;;1.25;0.90;;;;;;;11.93;100.00;94139.25;5128482;27;20254;-79
2023/05/18 03:01:02;;;;;;;0.98;0.80;;;;;;;12.07;100.00;94151.25;5129480;27;20660;-79
2023/05/18 03:03:29;;;;;;;1.40;1.00;;;;;;;11.92;100.00;94154.75;5127639;27;20203;-78
2023/05/18 03:05:56;;;;;;;1.73;1.30;;;;;;;11.89;100.00;94160.84;5127778;27;20196;-78
2023/05/18 03:08:25;;;;;;;1.52;1.17;;;;;;;12.03;100.00;94166.66;5129988;27;20193;-79
2023/05/18 03:10:52;;;;;;;1.98;1.13;;;;;;;12.07;100.00;94167.56;5129407;27;20846;-78
2023/05/18 03:13:19;;;;;;;2.10;1.23;;;;;;;12.02;100.00;94167.81;5129911;27;20265;-77
2023/05/18 03:15:46;;;;;;;2.75;1.40;;;;;;;12.12;100.00;94163.00;5129621;27;20219;-78
2023/05/18 03:18:13;;;;;;;2.28;1.27;;;;;;;12.12;100.00;94173.88;5129270;27;20211;-78
2023/05/18 03:20:40;;;;;;;2.13;1.20;;;;;;;12.25;100.00;94183.53;5126104;28;20197;-78
2023/05/18 03:23:07;;;;;;;3.03;1.30;;;;;;;12.20;100.00;94187.28;5120371;28;20678;-79
2023/05/18 03:25:36;;;;;;;4.45;1.52;;;;;;;12.15;100.00;94184.03;5129819;28;20239;-78
2023/05/18 03:28:03;;;;;;;1.33;1.17;;;;;;;11.98;100.00;94191.38;5126498;28;20583;-79
2023/05/18 03:30:31;;;;;;;3.17;1.33;;;;;;;12.06;100.00;94187.69;5129515;28;20224;-77
2023/05/18 03:32:58;;;;;;;5.03;1.60;;;;;;;12.07;100.00;94192.00;5129184;28;20220;-78
2023/05/18 03:35:25;;;;;;;2.20;1.42;;;;;;;12.09;100.00;94195.16;5129694;28;20275;-78
2023/05/18 03:37:52;;;;;;;1.98;1.48;;;;;;;12.02;100.00;94192.25;5129909;28;20249;-79
2023/05/18 03:40:19;;;;;;;1.75;1.23;;;;;;;11.99;100.00;94192.94;5130061;28;20200;-78
2023/05/18 03:42:48;;;;;;;2.22;1.67;;;;;;;11.96;100.00;94196.34;5130100;28;20197;-78
2023/05/18 03:45:14;;;;;;;18.20;8.05;;;;;;;11.86;100.00;94196.84;5130679;27;20230;-78
2023/05/18 03:47:41;;;;;;;40.38;20.40;;;;;;;11.90;100.00;94205.06;5133086;27;20257;-79
2023/05/18 03:50:09;;;;;;;67.05;34.50;;;;;;;12.02;100.00;94192.25;5112906;28;20660;-79
2023/05/18 03:52:36;;;;;;;6.55;4.40;;;;;;;11.97;100.00;94211.50;5121860;27;20277;-78
2023/05/18 03:55:04;;;;;;;7.57;3.35;;;;;;;11.92;100.00;94214.44;5133915;27;20201;-78
2023/05/18 03:57:31;;;;;;;5.07;2.47;;;;;;;11.95;100.00;94205.63;5133874;27;20200;-79
2023/05/18 03:59:59;;;;;;;2.88;1.85;;;;;;;11.95;100.00;94213.75;5132945;27;20209;-78
2023/05/18 04:02:26;;;;;;;3.90;2.22;;;;;;;11.94;100.00;94222.25;5133708;27;20552;-80
2023/05/18 04:04:53;;;;;;;2.65;2.05;;;;;;;11.96;100.00;94215.34;5133309;27;20568;-80
2023/05/18 04:07:23;;;;;;;3.75;2.22;;;;;;;12.07;100.00;94227.28;5128716;27;20201;-81
2023/05/18 04:09:50;;;;;;;3.50;2.60;;;;;;;12.08;100.00;94226.16;5126966;27;20960;-79
2023/05/18 04:12:17;;;;;;;7.13;3.55;;;;;;;12.10;100.00;94226.59;5133523;27;20328;-81
2023/05/18 04:14:48;;;;;;;9.25;2.80;;;;;;;12.10;100.00;94236.66;5133840;27;20272;-79
2023/05/18 04:17:16;;;;;;;3.55;2.97;;;;;;;12.12;100.00;94230.88;5133432;27;20189;-79
2023/05/18 04:19:43;;;;;;;8.68;2.65;;;;;;;12.23;100.00;94235.47;5133040;27;20612;-80
2023/05/18 04:22:10;;;;;;;3.78;2.90;;;;;;;12.28;100.00;94229.00;5133183;27;20651;-80
2023/05/18 04:24:37;;;;;;;5.15;3.20;;;;;;;12.38;100.00;94231.19;5132980;27;20192;-81
2023/05/18 04:27:04;;;;;;;3.63;2.70;;;;;;;12.43;100.00;94222.81;5120686;27;20282;-81
2023/05/18 04:29:30;;;;;;;3.83;2.60;;;;;;;12.60;100.00;94221.66;5132968;27;20605;-81
2023/05/18 04:31:59;;;;;;;3.55;2.80;;;;;;;12.56;100.00;94227.03;5132346;27;20236;-82
2023/05/18 04:34:28;;;;;;;4.13;2.35;;;;;;;12.64;100.00;94215.19;5131896;27;20235;-82
2023/05/18 04:36:57;;;;;;;4.47;2.58;;;;;;;12.59;100.00;94229.03;5132930;27;20279;-82
2023/05/18 04:39:24;;;;;;;3.53;2.60;;;;;;;12.57;100.00;94217.75;5133114;27;20201;-82
2023/05/18 04:41:56;;;;;;;4.35;2.97;;;;;;;12.58;100.00;94229.38;5132862;27;20262;-81
2023/05/18 04:44:24;;;;;;;5.03;2.78;;;;;;;12.58;100.00;94232.88;5132515;27;20605;-82
2023/05/18 04:46:51;;;;;;;6.38;2.92;;;;;;;12.60;100.00;94230.59;5132983;27;20966;-82
2023/05/18 04:49:20;;;;;;;3.95;2.70;;;;;;;12.50;100.00;94239.28;5132568;27;20197;-80
2023/05/18 04:51:54;;;;;;;3.47;2.92;;;;;;;12.73;100.00;94242.19;5130250;27;20730;-79
2023/05/18 04:54:21;;;;;;;3.33;2.90;;;;;;;12.75;100.00;94246.13;5131384;27;20561;-81
2023/05/18 04:56:48;;;;;;;3.05;2.58;;;;;;;12.68;100.00;94242.47;5132721;27;20203;-78
2023/05/18 04:59:15;;;;;;;3.28;2.97;;;;;;;12.85;100.00;94244.81;5118599;27;20268;-78
2023/05/18 05:01:42;;;;;;;3.88;2.83;;;;;;;12.91;100.00;94261.66;5132350;27;20205;-78
2023/05/18 05:04:09;;;;;;;5.43;2.88;;;;;;;12.97;100.00;94252.09;5118697;27;20205;-79
2023/05/18 05:06:36;;;;;;;4.25;3.42;;;;;;;13.13;100.00;94267.25;5132841;27;20204;-78
2023/05/18 05:09:04;;;;;;;3.88;3.10;;;;;;;13.11;100.00;94266.06;5132653;27;20328;-79
2023/05/18 05:11:31;;;;;;;3.30;3.00;;;;;;;13.14;100.00;94270.75;5132820;27;20554;-78
2023/05/18 05:13:57;;;;;;;4.28;3.13;;;;;;;13.06;100.00;94260.88;5132439;27;20250;-77
2023/05/18 05:16:24;;;;;;;7.95;2.80;;;;;;;13.02;100.00;94268.13;5132131;27;20273;-78
2023/05/18 05:18:51;;;;;;;4.13;3.10;;;;;;;12.91;100.00;94265.16;5132424;27;20196;-78
2023/05/18 05:21:18;;;;;;;3.85;2.90;;;;;;;12.89;100.00;94274.81;5132087;27;20235;-78
2023/05/18 05:23:45;;;;;;;4.38;3.25;;;;;;;12.87;100.00;94279.81;5132989;27;20246;-77
2023/05/18 05:26:13;;;;;;;4.38;3.38;;;;;;;12.94;100.00;94280.00;5132504;27;20265;-78
2023/05/18 05:28:40;;;;;;;5.45;3.25;;;;;;;13.00;100.00;94282.09;5132548;27;20913;-78
2023/05/18 05:31:06;;;;;;;4.13;2.92;;;;;;;13.02;100.00;94279.81;5132606;27;20232;-78
2023/05/18 05:33:33;;;;;;;6.28;3.42;;;;;;;12.76;100.00;94280.31;5132654;27;20239;-77
2023/05/18 05:36:00;;;;;;;5.97;3.50;;;;;;;12.70;100.00;94281.75;5132284;27;20272;-78
2023/05/18 05:38:27;;;;;;;4.28;3.33;;;;;;;12.86;100.00;94289.09;5132199;27;20205;-78
2023/05/18 05:40:54;;;;;;;7.78;3.58;;;;;;;12.92;100.00;94287.72;5132090;27;20197;-78
2023/05/18 05:43:22;;;;;;;5.90;3.28;;;;;;;13.09;100.00;94288.16;5132166;27;20197;-78
2023/05/18 05:45:48;;;;;;;5.03;3.65;;;;;;;13.01;100.00;94280.16;5131713;27;21055;-78
2023/05/18 05:48:15;;;;;;;7.78;3.25;;;;;;;13.05;100.00;94295.44;5131642;27;20201;-78
2023/05/18 05:50:42;;;;;;;6.00;3.42;;;;;;;12.92;100.00;94293.13;5145543;27;20656;-79
2023/05/18 05:53:09;;;;;;;5.43;3.92;;;;;;;12.91;100.00;94297.00;5131581;27;20765;-78
2023/05/18 05:55:39;;;;;;;5.20;3.28;;;;;;;12.93;100.00;94300.16;5132063;27;20558;-78
2023/05/18 05:58:06;;;;;;;7.35;3.80;;;;;;;12.82;100.00;94300.69;5131744;27;20193;-78
2023/05/18 06:00:35;;;;;;;4.30;3.28;;;;;;;12.74;100.00;94304.34;5132015;27;20602;-79
2023/05/18 06:03:01;;;;;;;4.90;3.75;;;;;;;12.76;100.00;94301.28;5131898;27;20205;-78
2023/05/18 06:05:28;;;;;;;5.03;3.58;;;;;;;12.68;100.00;94302.25;5131603;27;20693;-79
2023/05/18 06:07:56;;;;;;;5.60;5.10;;;;;;;12.64;100.00;94299.44;5130682;27;20254;-79
2023/05/18 06:10:23;;;;;;;5.07;3.60;;;;;;;12.63;100.00;94303.28;5131324;27;20213;-78
2023/05/18 06:12:49;;;;;;;5.85;4.00;;;;;;;12.53;100.00;94303.00;5131195;27;20236;-78
2023/05/18 06:15:16;;;;;;;5.40;3.83;;;;;;;12.57;100.00;94310.13;5130986;27;20197;-78
2023/05/18 06:17:44;;;;;;;5.32;3.95;;;;;;;12.76;100.00;94296.63;5130450;27;20539;-77
2023/05/18 06:20:12;;;;;;;7.32;4.18;;;;;;;12.84;100.00;94308.50;5130684;27;20205;-77
2023/05/18 06:22:39;;;;;;;6.82;4.50;;;;;;;12.69;100.00;94306.53;5131115;27;20199;-77
2023/05/18 06:25:07;;;;;;;6.95;4.45;;;;;;;12.68;100.00;94322.06;5131330;27;20197;-77
2023/05/18 06:27:33;;;;;;;7.03;4.32;;;;;;;12.79;100.00;94311.47;5131019;27;20201;-77
2023/05/18 06:30:00;;;;;;;5.80;3.92;;;;;;;12.85;100.00;94314.72;5130929;27;20197;-77
2023/05/18 06:32:27;;;;;;;6.40;4.25;;;;;;;13.01;100.00;94318.22;5131434;27;20232;-78
2023/05/18 06:34:55;;;;;;;5.55;3.88;;;;;;;13.01;100.00;94318.22;5130827;27;20703;-77
2023/05/18 06:37:22;;;;;;;5.68;3.85;;;;;;;12.93;100.00;94327.34;5130709;27;20250;-77
2023/05/18 06:39:49;;;;;;;5.30;4.80;;;;;;;12.94;100.00;94329.72;5131158;27;20196;-77
2023/05/18 06:42:15;;;;;;;5.53;4.28;;;;;;;13.13;100.00;94331.72;5130706;27;20591;-77
2023/05/18 06:44:43;;;;;;;5.80;4.47;;;;;;;13.13;100.00;94331.72;5130219;27;20212;-77
2023/05/18 06:47:10;;;;;;;7.38;5.47;;;;;;;13.37;100.00;94326.16;5130378;27;20205;-77
2023/05/18 06:49:37;;;;;;;6.93;4.55;;;;;;;13.35;100.00;94333.88;5130625;27;20284;-78
2023/05/18 06:52:06;;;;;;;6.25;4.43;;;;;;;13.35;100.00;94328.44;5116030;27;20225;-78
2023/05/18 06:54:33;;;;;;;5.15;3.88;;;;;;;13.84;100.00;94341.63;5130390;27;20667;-78
2023/05/18 06:57:00;;;;;;;6.30;4.22;;;;;;;13.77;100.00;94338.75;5130372;27;20222;-78
2023/05/18 06:59:26;;;;;;;6.03;3.85;;;;;;;13.96;100.00;94344.22;5130638;27;20601;-78
2023/05/18 07:01:53;;;;;;;5.07;3.47;;;;;;;13.90;100.00;94348.38;5130301;27;20236;-78
2023/05/18 07:04:20;;;;;;;6.05;4.38;;;;;;;14.22;100.00;94355.28;5129602;27;20269;-77
2023/05/18 07:06:47;;;;;;;4.50;3.38;;;;;;;14.15;100.00;94359.81;5129816;27;20258;-79
2023/05/18 07:09:16;;;;;;;4.75;2.92;;;;;;;13.99;100.00;94365.31;5129957;27;20193;-78
2023/05/18 07:11:44;;;;;;;8.27;3.72;;;;;;;13.95;100.00;94361.69;5129877;27;20324;-78
2023/05/18 07:14:11;;;;;;;5.18;3.40;;;;;;;13.74;100.00;94366.69;5130053;27;20227;-78
2023/05/18 07:16:38;;;;;;;5.85;3.80;;;;;;;13.59;100.00;94367.47;5129931;27;20656;-78
2023/05/18 07:19:05;;;;;;;5.95;3.72;;;;;;;13.60;100.00;94366.34;5129557;27;20201;-79
2023/05/18 07:21:33;;;;;;;6.70;4.10;;;;;;;13.78;100.00;94375.72;5129833;27;20197;-78
2023/05/18 07:24:00;;;;;;;11.38;4.13;;;;;;;13.77;100.00;94371.41;5130252;28;20219;-78
2023/05/18 07:26:28;;;;;;;6.68;4.50;;;;;;;13.57;100.00;94383.38;5130216;28;20249;-77
2023/05/18 07:28:55;;;;;;;5.88;4.32;;;;;;;13.61;100.00;94373.38;5130342;28;20659;-78
2023/05/18 07:31:22;;;;;;;10.88;4.93;;;;;;;13.47;100.00;94380.03;5129788;28;20217;-78
2023/05/18 07:33:48;;;;;;;11.95;5.32;;;;;;;13.39;100.00;94389.16;5129123;28;20236;-78
2023/05/18 07:36:15;;;;;;;8.68;4.63;;;;;;;13.44;100.00;94391.63;5132328;27;20207;-78
2023/05/18 07:38:42;;;;;;;9.50;4.68;;;;;;;13.33;100.00;94396.00;5140389;27;20253;-78
2023/05/18 07:41:09;;;;;;;14.60;4.90;;;;;;;13.32;100.00;94394.44;5129527;28;20205;-77
2023/05/18 07:43:37;;;;;;;8.52;5.70;;;;;;;12.98;100.00;94405.94;5129926;28;20775;-78
2023/05/18 07:46:04;;;;;;;9.07;5.78;;;;;;;13.12;100.00;94407.09;5130019;28;20265;-79
2023/05/18 07:48:31;;;;;;;8.45;6.03;;;;;;;12.93;97.20;94408.91;5129853;28;20204;-78
2023/05/18 07:50:58;;;;;;;12.75;5.90;;;;;;;12.97;98.03;94416.03;5129589;28;20197;-78
2023/05/18 07:53:25;;;;;;;13.18;6.40;;;;;;;13.00;99.25;94417.25;5129700;28;20320;-79
2023/05/18 07:55:51;;;;;;;9.05;6.20;;;;;;;13.03;100.00;94422.00;5129921;28;20656;-78
2023/05/18 07:58:18;;;;;;;10.98;6.38;;;;;;;13.10;99.75;94414.03;5129672;28;20264;-78
2023/05/18 08:00:46;;;;;;;9.90;6.47;;;;;;;13.11;99.93;94434.66;5130135;28;20258;-78
2023/05/18 08:03:13;;;;;;;11.80;8.77;;;;;;;13.19;97.46;94428.28;5129465;28;20226;-79
2023/05/18 08:05:40;;;;;;;11.00;6.45;;;;;;;13.40;97.46;94431.53;5138882;27;20205;-78
2023/05/18 08:08:10;;;;;;;13.43;6.60;;;;;;;13.61;98.20;94433.25;5128276;28;20208;-79
2023/05/18 08:10:37;;;;;;;11.38;7.22;;;;;;;13.47;94.63;94433.66;5129587;28;20205;-79
2023/05/18 08:13:04;;;;;;;9.15;6.88;;;;;;;13.67;95.76;94437.25;5129410;27;20232;-78
2023/05/18 08:15:31;;;;;;;10.93;6.80;;;;;;;13.55;96.18;94446.31;5143254;27;20285;-79
2023/05/18 08:17:59;;;;;;;11.95;7.57;;;;;;;13.40;100.00;94445.16;5130039;27;20201;-78
2023/05/18 08:20:29;;;;;;;11.40;8.43;;;;;;;13.31;100.00;94449.19;5142622;27;20732;-78
2023/05/18 08:22:55;;;;;;;9.25;6.90;;;;;;;13.45;100.00;94447.63;5129721;28;20250;-78
2023/05/18 08:25:22;;;;;;;10.07;7.28;;;;;;;13.43;98.40;94455.34;5129651;28;20659;-78
2023/05/18 08:27:49;;;;;;;12.30;6.93;;;;;;;13.49;98.00;94459.41;5129812;28;20262;-78
2023/05/18 08:30:20;;;;;;;12.27;7.35;;;;;;;13.19;94.84;94466.38;5129433;27;20201;-77
2023/05/18 08:32:46;;;;;;;10.45;6.82;;;;;;;13.28;95.79;94469.72;5132932;27;20293;-78
2023/05/18 08:35:15;;;;;;;12.45;6.53;;;;;;;13.22;96.13;94473.03;5133246;27;20197;-79
2023/05/18 08:37:41;;;;;;;10.77;7.10;;;;;;;13.06;96.11;94481.13;5133344;27;20696;-79
2023/05/18 08:40:10;;;;;;;9.48;7.25;;;;;;;13.04;93.32;94475.25;5132766;27;20245;-79
2023/05/18 08:42:44;;;;;;;12.32;7.32;;;;;;;12.97;96.07;94475.06;5133019;27;20201;-79
2023/05/18 08:45:14;;;;;;;11.38;6.68;;;;;;;12.97;92.58;94475.84;5132818;27;20584;-80
2023/05/18 08:47:41;;;;;;;13.15;7.03;;;;;;;13.00;94.13;94485.22;5133202;27;20321;-79
2023/05/18 08:50:12;;;;;;;9.18;6.25;;;;;;;12.78;90.91;94484.63;5144721;27;20227;-81
2023/05/18 08:52:47;;;;;;;15.70;6.88;;;;;;;12.77;91.46;94488.47;5127911;27;20299;-78
2023/05/18 08:55:16;;;;;;;13.75;8.07;;;;;;;12.79;92.37;94486.22;5130267;27;20196;-76
2023/05/18 08:57:48;;;;;;;9.27;6.53;;;;;;;12.94;91.80;94498.28;5132967;27;20249;-78
2023/05/18 09:00:17;;;;;;;11.43;7.10;;;;;;;12.91;91.44;94495.47;5113970;27;20186;-79
2023/05/18 09:02:43;;;;;;;10.73;6.32;;;;;;;12.90;91.19;94504.75;5133387;27;20666;-80
2023/05/18 09:05:12;;;;;;;9.57;6.15;;;;;;;12.94;91.72;94505.66;5132210;27;20614;-80
2023/05/18 09:07:42;;;;;;;9.07;5.90;;;;;;;13.02;89.70;94510.16;5132215;27;20223;-82
2023/05/18 09:10:10;;;;;;;10.00;6.90;;;;;;;13.19;91.50;94509.88;5132391;27;20197;-80
2023/05/18 09:12:39;;;;;;;11.20;6.68;;;;;;;13.25;90.58;94522.13;5132307;27;20274;-80
2023/05/18 09:15:08;;;;;;;10.68;7.00;;;;;;;13.26;92.21;94520.94;5132125;27;20272;-81
2023/05/18 09:17:35;;;;;;;8.30;6.50;;;;;;;13.34;93.63;94514.59;5132256;27;20270;-80
2023/05/18 09:20:03;;;;;;;13.77;7.80;;;;;;;13.44;93.29;94522.22;5131817;27;20232;-80
2023/05/18 09:22:31;;;;;;;11.07;7.13;;;;;;;13.51;92.79;94517.00;5132031;27;20201;-81
2023/05/18 09:24:59;;;;;;;16.05;7.32;;;;;;;13.46;93.51;94525.41;5132055;27;20667;-81
2023/05/18 09:27:29;;;;;;;10.50;7.03;;;;;;;13.48;94.78;94523.13;5131991;27;20737;-81
2023/05/18 09:29:58;;;;;;;10.60;6.95;;;;;;;13.56;94.73;94523.31;5132025;27;20542;-80
2023/05/18 09:32:26;;;;;;;12.38;7.10;;;;;;;13.58;94.46;94521.03;5131650;27;20438;-81
2023/05/18 09:34:54;;;;;;;16.77;7.53;;;;;;;13.53;93.08;94528.31;5145759;27;20651;-83
2023/05/18 09:37:22;;;;;;;16.58;6.55;;;;;;;13.44;93.18;94521.44;5131771;27;20654;-86
2023/05/18 09:40:00;;;;;;;10.77;6.35;;;;;;;13.31;93.37;94528.88;5130872;27;20209;-79
2023/05/18 09:42:28;;;;;;;9.18;6.00;;;;;;;13.37;93.11;94532.94;5130294;27;20646;-80
2023/05/18 09:44:55;;;;;;;19.38;11.38;;;;;;;13.42;93.99;94540.03;5131246;27;20201;-81
2023/05/18 09:47:21;;;;;;;14.20;8.35;;;;;;;13.40;93.55;94543.09;5131074;27;20200;-80
2023/05/18 09:49:48;;;;;;;12.70;7.07;;;;;;;13.51;94.15;94538.78;5130799;27;20189;-80
2023/05/18 09:52:15;;;;;;;8.88;6.10;;;;;;;13.74;93.09;94532.72;5130276;27;20614;-81
2023/05/18 09:54:42;;;;;;;11.38;6.78;;;;;;;13.72;92.68;94537.72;5130840;27;20212;-80
2023/05/18 09:57:10;;;;;;;7.82;5.63;;;;;;;13.62;91.37;94532.81;5130221;27;20204;-80
2023/05/18 09:59:37;;;;;;;11.77;6.28;;;;;;;13.81;91.75;94530.19;5130930;27;20200;-80
2023/05/18 10:02:07;;;;;;;7.30;5.57;;;;;;;13.85;90.38;94540.03;5130858;27;20313;-79
2023/05/18 10:04:38;;;;;;;9.23;5.55;;;;;;;13.93;89.24;94537.50;5130415;27;20189;-80
2023/05/18 10:07:12;;;;;;;8.77;6.25;;;;;;;13.95;88.91;94541.44;5125171;27;20265;-79
2023/05/18 10:09:39;;;;;;;10.63;5.00;;;;;;;14.17;89.28;94542.78;5125688;27;20921;-78
2023/05/18 10:12:12;;;;;;;7.60;5.07;;;;;;;14.27;89.85;94536.00;5128551;27;20193;-78
2023/05/18 10:14:41;;;;;;;9.52;5.63;;;;;;;14.36;91.86;94528.41;5130178;27;20316;-79
2023/05/18 10:17:07;;;;;;;8.40;5.65;;;;;;;14.38;89.86;94542.47;5127833;27;20604;-78
2023/05/18 10:19:35;;;;;;;8.98;5.38;;;;;;;14.33;88.75;94540.84;5130719;27;20262;-77
2023/05/18 10:22:03;;;;;;;8.77;5.68;;;;;;;14.36;87.58;94539.31;5130198;27;20201;-78
2023/05/18 10:24:34;;;;;;;8.00;5.13;;;;;;;14.23;87.55;94553.03;5129796;27;20193;-78
2023/05/18 10:27:06;;;;;;;7.70;5.30;;;;;;;14.14;88.92;94555.16;5128884;27;20189;-79
2023/05/18 10:29:35;;;;;;;9.52;5.55;;;;;;;14.10;88.86;94553.47;5129571;27;20197;-81
2023/05/18 10:32:03;;;;;;;11.50;5.57;;;;;;;14.16;88.89;94558.34;5129590;27;20217;-79
2023/05/18 10:34:31;;;;;;;8.05;5.57;;;;;;;14.09;87.62;94563.59;5128098;27;20640;-79
2023/05/18 10:37:02;;;;;;;8.15;5.15;;;;;;;14.10;87.73;94558.94;5123388;27;20226;-79
2023/05/18 10:39:31;;;;;;;11.70;6.05;;;;;;;13.97;87.04;94566.41;5131204;27;20193;-78
2023/05/18 10:42:00;;;;;;;7.65;5.40;;;;;;;13.94;89.51;94569.81;5131045;27;20197;-78
2023/05/18 10:44:27;;;;;;;8.77;5.50;;;;;;;14.01;88.34;94561.84;5130435;27;20197;-80
2023/05/18 10:46:55;;;;;;;9.05;5.88;;;;;;;14.02;88.14;94565.34;5128280;27;20193;-78
2023/05/18 10:49:24;;;;;;;14.23;7.47;;;;;;;14.01;88.80;94572.72;5129701;27;20246;-79
2023/05/18 10:51:53;;;;;;;12.02;5.95;;;;;;;14.16;86.88;94566.50;5116958;27;20291;-78
2023/05/18 10:54:21;;;;;;;12.43;5.85;;;;;;;14.26;86.11;94570.63;5128625;27;20315;-78
2023/05/18 10:56:52;;;;;;;8.70;5.65;;;;;;;14.52;87.02;94570.09;5126439;27;20201;-78
2023/05/18 10:59:21;;;;;;;10.10;5.68;;;;;;;14.72;86.23;94569.03;5122482;27;20189;-76
2023/05/18 11:01:50;;;;;;;15.40;7.10;;;;;;;14.85;86.03;94564.25;5130407;27;20667;-79
2023/05/18 11:04:23;;;;;;;13.65;6.65;;;;;;;14.91;85.78;94571.78;5131626;27;20197;-79
2023/05/18 11:06:55;;;;;;;9.85;6.15;;;;;;;14.87;86.03;94568.22;5130656;27;20535;-80
2023/05/18 11:09:23;;;;;;;14.05;5.43;;;;;;;14.65;83.72;94574.31;5130011;27;20193;-76
2023/05/18 11:11:51;;;;;;;9.07;6.68;;;;;;;14.64;83.51;94578.19;5130105;27;20240;-75
2023/05/18 11:14:26;;;;;;;11.90;7.82;;;;;;;14.53;84.51;94579.88;5130258;27;20264;-77
2023/05/18 11:16:53;;;;;;;11.02;7.03;;;;;;;14.24;86.23;94587.31;5128595;27;20717;-78
2023/05/18 11:19:26;;;;;;;9.13;6.43;;;;;;;13.83;89.41;94598.69;5129852;27;20201;-77
2023/05/18 11:21:53;;;;;;;11.90;7.95;;;;;;;13.61;92.62;94596.56;5130312;27;20284;-77
2023/05/18 11:24:41;;;;;;;20.20;9.10;;;;;;;13.52;94.34;94605.66;5121824;28;20212;-78
2023/05/18 11:27:12;;;;;;;8.82;3.97;;;;;;;13.20;93.87;94617.56;5118621;28;20200;-77
2023/05/18 11:29:43;;;;;;;3.60;2.50;;;;;;;13.03;94.41;94607.69;5128438;28;20201;-77
2023/05/18 11:32:22;;;;;;;6.80;4.15;;;;;;;12.66;95.65;94620.56;5124674;28;20201;-84